sensor_id;sensor_type;location;lat;lon;timestamp;P1;durP1;ratioP1;P2;durP2;ratioP2
14768;SDS011;7476;49.404;11.152;2022-08-19T00:02:23;33.40;;;30.00;;
14768;SDS011;7476;49.404;11.152;2022-08-19T00:04:50;33.37;;;29.77;;
14768;SDS011;7476;49.404;11.152;2022-08-19T00:07:17;34.23;;;30.80;;
14768;SDS011;7476;49.404;11.152;2022-08-19T00:09:44;35.57;;;32.10;;
14768;SDS011;7476;49.404;11.152;2022-08-19T00:12:12;35.37;;;31.63;;
14768;SDS011;7476;49.404;11.152;2022-08-19T00:14:40;36.67;;;32.77;;
14768;SDS011;7476;49.404;11.152;2022-08-19T00:17:07;37.10;;;33.13;;
14768;SDS011;7476;49.404;11.152;2022-08-19T00:19:35;37.07;;;33.17;;
14768;SDS011;7476;49.404;11.152;2022-08-19T00:22:02;37.90;;;33.90;;
14768;SDS011;7476;49.404;11.152;2022-08-19T00:24:30;36.20;;;32.37;;
14768;SDS011;7476;49.404;11.152;2022-08-19T00:26:57;36.23;;;32.53;;
14768;SDS011;7476;49.404;11.152;2022-08-19T00:29:28;36.10;;;32.40;;
14768;SDS011;7476;49.404;11.152;2022-08-19T00:31:55;36.70;;;32.43;;
14768;SDS011;7476;49.404;11.152;2022-08-19T00:34:24;35.40;;;31.70;;
14768;SDS011;7476;49.404;11.152;2022-08-19T00:36:52;33.93;;;30.40;;
14768;SDS011;7476;49.404;11.152;2022-08-19T00:39:19;36.23;;;32.53;;
14768;SDS011;7476;49.404;11.152;2022-08-19T00:41:47;36.10;;;32.20;;
14768;SDS011;7476;49.404;11.152;2022-08-19T00:44:17;32.00;;;28.83;;
14768;SDS011;7476;49.404;11.152;2022-08-19T00:46:48;36.37;;;32.67;;
14768;SDS011;7476;49.404;11.152;2022-08-19T00:49:18;36.47;;;32.53;;
14768;SDS011;7476;49.404;11.152;2022-08-19T00:51:50;33.07;;;29.63;;
14768;SDS011;7476;49.404;11.152;2022-08-19T00:54:19;36.60;;;33.00;;
14768;SDS011;7476;49.404;11.152;2022-08-19T00:56:47;36.43;;;32.53;;
14768;SDS011;7476;49.404;11.152;2022-08-19T00:59:14;35.83;;;32.23;;
14768;SDS011;7476;49.404;11.152;2022-08-19T01:01:42;35.23;;;31.37;;
14768;SDS011;7476;49.404;11.152;2022-08-19T01:04:12;35.73;;;32.03;;
14768;SDS011;7476;49.404;11.152;2022-08-19T01:06:39;39.07;;;33.77;;
14768;SDS011;7476;49.404;11.152;2022-08-19T01:09:07;36.07;;;32.40;;
14768;SDS011;7476;49.404;11.152;2022-08-19T01:11:35;35.67;;;32.13;;
14768;SDS011;7476;49.404;11.152;2022-08-19T01:14:05;36.27;;;32.47;;
14768;SDS011;7476;49.404;11.152;2022-08-19T01:16:33;36.27;;;32.67;;
14768;SDS011;7476;49.404;11.152;2022-08-19T01:19:02;35.27;;;31.70;;
14768;SDS011;7476;49.404;11.152;2022-08-19T01:21:37;35.60;;;31.93;;
14768;SDS011;7476;49.404;11.152;2022-08-19T01:24:11;33.60;;;30.03;;
14768;SDS011;7476;49.404;11.152;2022-08-19T01:26:38;35.40;;;31.20;;
14768;SDS011;7476;49.404;11.152;2022-08-19T01:29:07;31.90;;;28.47;;
14768;SDS011;7476;49.404;11.152;2022-08-19T01:31:34;33.23;;;29.40;;
14768;SDS011;7476;49.404;11.152;2022-08-19T01:34:01;32.30;;;28.90;;
14768;SDS011;7476;49.404;11.152;2022-08-19T01:36:30;32.17;;;28.93;;
14768;SDS011;7476;49.404;11.152;2022-08-19T01:38:59;32.23;;;29.00;;
14768;SDS011;7476;49.404;11.152;2022-08-19T01:41:28;31.90;;;27.87;;
14768;SDS011;7476;49.404;11.152;2022-08-19T01:43:55;32.00;;;28.73;;
14768;SDS011;7476;49.404;11.152;2022-08-19T01:46:22;30.07;;;26.97;;
14768;SDS011;7476;49.404;11.152;2022-08-19T01:48:48;31.53;;;28.33;;
14768;SDS011;7476;49.404;11.152;2022-08-19T01:51:15;32.23;;;28.63;;
14768;SDS011;7476;49.404;11.152;2022-08-19T01:53:45;30.07;;;26.97;;
14768;SDS011;7476;49.404;11.152;2022-08-19T01:56:13;30.90;;;27.70;;
14768;SDS011;7476;49.404;11.152;2022-08-19T01:58:48;31.33;;;28.03;;
14768;SDS011;7476;49.404;11.152;2022-08-19T02:01:17;31.77;;;28.37;;
14768;SDS011;7476;49.404;11.152;2022-08-19T02:03:44;31.77;;;28.67;;
14768;SDS011;7476;49.404;11.152;2022-08-19T02:06:11;32.50;;;29.17;;
14768;SDS011;7476;49.404;11.152;2022-08-19T02:08:38;36.03;;;28.77;;
14768;SDS011;7476;49.404;11.152;2022-08-19T02:11:06;29.07;;;26.03;;
14768;SDS011;7476;49.404;11.152;2022-08-19T02:13:33;29.40;;;26.30;;
14768;SDS011;7476;49.404;11.152;2022-08-19T02:16:02;31.47;;;28.37;;
14768;SDS011;7476;49.404;11.152;2022-08-19T02:18:29;31.47;;;28.23;;
14768;SDS011;7476;49.404;11.152;2022-08-19T02:20:55;30.67;;;27.37;;
14768;SDS011;7476;49.404;11.152;2022-08-19T02:23:22;29.80;;;26.60;;
14768;SDS011;7476;49.404;11.152;2022-08-19T02:25:49;31.63;;;26.87;;
14768;SDS011;7476;49.404;11.152;2022-08-19T02:28:17;31.20;;;27.93;;
14768;SDS011;7476;49.404;11.152;2022-08-19T02:30:43;32.30;;;28.53;;
14768;SDS011;7476;49.404;11.152;2022-08-19T02:33:11;29.47;;;26.43;;
14768;SDS011;7476;49.404;11.152;2022-08-19T02:35:40;33.17;;;28.80;;
14768;SDS011;7476;49.404;11.152;2022-08-19T02:38:08;30.97;;;27.77;;
14768;SDS011;7476;49.404;11.152;2022-08-19T02:40:54;29.73;;;26.70;;
14768;SDS011;7476;49.404;11.152;2022-08-19T02:43:23;30.13;;;26.93;;
14768;SDS011;7476;49.404;11.152;2022-08-19T02:45:50;30.53;;;27.37;;
14768;SDS011;7476;49.404;11.152;2022-08-19T02:48:19;30.87;;;27.53;;
14768;SDS011;7476;49.404;11.152;2022-08-19T02:50:47;32.20;;;27.77;;
14768;SDS011;7476;49.404;11.152;2022-08-19T02:53:20;31.67;;;28.27;;
14768;SDS011;7476;49.404;11.152;2022-08-19T02:55:47;31.87;;;28.50;;
14768;SDS011;7476;49.404;11.152;2022-08-19T02:58:15;31.03;;;27.83;;
14768;SDS011;7476;49.404;11.152;2022-08-19T03:00:43;30.53;;;27.47;;
14768;SDS011;7476;49.404;11.152;2022-08-19T03:03:12;31.13;;;27.83;;
14768;SDS011;7476;49.404;11.152;2022-08-19T03:05:40;31.93;;;28.27;;
14768;SDS011;7476;49.404;11.152;2022-08-19T03:08:07;30.67;;;27.47;;
14768;SDS011;7476;49.404;11.152;2022-08-19T03:10:39;31.50;;;28.27;;
14768;SDS011;7476;49.404;11.152;2022-08-19T03:13:09;30.57;;;27.43;;
14768;SDS011;7476;49.404;11.152;2022-08-19T03:15:38;31.50;;;28.10;;
14768;SDS011;7476;49.404;11.152;2022-08-19T03:18:06;31.23;;;27.97;;
14768;SDS011;7476;49.404;11.152;2022-08-19T03:20:33;30.90;;;27.60;;
14768;SDS011;7476;49.404;11.152;2022-08-19T03:23:01;32.50;;;29.17;;
14768;SDS011;7476;49.404;11.152;2022-08-19T03:25:27;30.30;;;27.20;;
14768;SDS011;7476;49.404;11.152;2022-08-19T03:27:54;32.80;;;29.47;;
14768;SDS011;7476;49.404;11.152;2022-08-19T03:30:21;33.33;;;29.70;;
14768;SDS011;7476;49.404;11.152;2022-08-19T03:32:47;34.53;;;30.20;;
14768;SDS011;7476;49.404;11.152;2022-08-19T03:35:14;34.43;;;30.83;;
14768;SDS011;7476;49.404;11.152;2022-08-19T03:37:41;34.33;;;30.43;;
14768;SDS011;7476;49.404;11.152;2022-08-19T03:40:09;34.63;;;30.93;;
14768;SDS011;7476;49.404;11.152;2022-08-19T03:42:36;34.97;;;29.83;;
14768;SDS011;7476;49.404;11.152;2022-08-19T03:45:03;30.83;;;27.50;;
14768;SDS011;7476;49.404;11.152;2022-08-19T03:47:32;34.33;;;29.17;;
14768;SDS011;7476;49.404;11.152;2022-08-19T03:49:58;33.23;;;29.63;;
14768;SDS011;7476;49.404;11.152;2022-08-19T03:52:25;35.03;;;29.97;;
14768;SDS011;7476;49.404;11.152;2022-08-19T03:54:52;32.80;;;29.33;;
14768;SDS011;7476;49.404;11.152;2022-08-19T03:57:20;34.27;;;29.50;;
14768;SDS011;7476;49.404;11.152;2022-08-19T03:59:46;35.43;;;29.07;;
14768;SDS011;7476;49.404;11.152;2022-08-19T04:02:13;35.73;;;29.73;;
14768;SDS011;7476;49.404;11.152;2022-08-19T04:04:41;33.07;;;28.87;;
14768;SDS011;7476;49.404;11.152;2022-08-19T04:07:09;33.07;;;28.57;;
14768;SDS011;7476;49.404;11.152;2022-08-19T04:09:40;32.03;;;28.53;;
14768;SDS011;7476;49.404;11.152;2022-08-19T04:12:07;30.93;;;27.77;;
14768;SDS011;7476;49.404;11.152;2022-08-19T04:14:35;28.70;;;25.70;;
14768;SDS011;7476;49.404;11.152;2022-08-19T04:17:02;31.17;;;27.90;;
14768;SDS011;7476;49.404;11.152;2022-08-19T04:19:30;30.00;;;26.67;;
14768;SDS011;7476;49.404;11.152;2022-08-19T04:21:58;30.60;;;27.43;;
14768;SDS011;7476;49.404;11.152;2022-08-19T04:24:25;30.20;;;27.10;;
14768;SDS011;7476;49.404;11.152;2022-08-19T04:26:52;32.20;;;28.00;;
14768;SDS011;7476;49.404;11.152;2022-08-19T04:29:19;30.70;;;27.40;;
14768;SDS011;7476;49.404;11.152;2022-08-19T04:31:51;31.97;;;28.43;;
14768;SDS011;7476;49.404;11.152;2022-08-19T04:34:20;32.20;;;27.97;;
14768;SDS011;7476;49.404;11.152;2022-08-19T04:36:48;30.17;;;25.93;;
14768;SDS011;7476;49.404;11.152;2022-08-19T04:39:17;33.73;;;27.97;;
14768;SDS011;7476;49.404;11.152;2022-08-19T04:41:46;31.27;;;27.83;;
14768;SDS011;7476;49.404;11.152;2022-08-19T04:44:31;29.73;;;26.47;;
14768;SDS011;7476;49.404;11.152;2022-08-19T04:46:59;32.97;;;29.37;;
14768;SDS011;7476;49.404;11.152;2022-08-19T04:49:28;33.43;;;27.93;;
14768;SDS011;7476;49.404;11.152;2022-08-19T04:51:55;33.50;;;28.10;;
14768;SDS011;7476;49.404;11.152;2022-08-19T04:54:22;32.47;;;28.93;;
14768;SDS011;7476;49.404;11.152;2022-08-19T04:56:51;29.73;;;26.53;;
14768;SDS011;7476;49.404;11.152;2022-08-19T04:59:19;31.83;;;28.43;;
14768;SDS011;7476;49.404;11.152;2022-08-19T05:01:46;30.97;;;27.70;;
14768;SDS011;7476;49.404;11.152;2022-08-19T05:04:17;31.77;;;27.60;;
14768;SDS011;7476;49.404;11.152;2022-08-19T05:06:45;29.17;;;26.07;;
14768;SDS011;7476;49.404;11.152;2022-08-19T05:09:12;30.30;;;27.07;;
14768;SDS011;7476;49.404;11.152;2022-08-19T05:11:39;31.13;;;27.07;;
14768;SDS011;7476;49.404;11.152;2022-08-19T05:14:05;30.80;;;26.73;;
14768;SDS011;7476;49.404;11.152;2022-08-19T05:16:33;29.17;;;26.03;;
14768;SDS011;7476;49.404;11.152;2022-08-19T05:19:00;31.47;;;26.63;;
14768;SDS011;7476;49.404;11.152;2022-08-19T05:21:46;29.97;;;26.77;;
14768;SDS011;7476;49.404;11.152;2022-08-19T05:24:30;29.37;;;26.20;;
14768;SDS011;7476;49.404;11.152;2022-08-19T05:26:59;27.93;;;24.97;;
14768;SDS011;7476;49.404;11.152;2022-08-19T05:29:27;28.70;;;25.70;;
14768;SDS011;7476;49.404;11.152;2022-08-19T05:31:56;29.40;;;25.67;;
14768;SDS011;7476;49.404;11.152;2022-08-19T05:34:23;28.97;;;25.63;;
14768;SDS011;7476;49.404;11.152;2022-08-19T05:36:55;29.23;;;25.97;;
14768;SDS011;7476;49.404;11.152;2022-08-19T05:39:23;28.07;;;25.07;;
14768;SDS011;7476;49.404;11.152;2022-08-19T05:41:52;26.03;;;23.17;;
14768;SDS011;7476;49.404;11.152;2022-08-19T05:44:22;26.00;;;22.83;;
14768;SDS011;7476;49.404;11.152;2022-08-19T05:46:50;25.87;;;23.23;;
14768;SDS011;7476;49.404;11.152;2022-08-19T05:49:19;27.43;;;22.27;;
14768;SDS011;7476;49.404;11.152;2022-08-19T05:51:48;25.43;;;22.60;;
14768;SDS011;7476;49.404;11.152;2022-08-19T05:54:16;25.20;;;22.50;;
14768;SDS011;7476;49.404;11.152;2022-08-19T05:56:44;25.33;;;22.77;;
14768;SDS011;7476;49.404;11.152;2022-08-19T05:59:12;24.73;;;21.67;;
14768;SDS011;7476;49.404;11.152;2022-08-19T06:01:41;23.37;;;21.07;;
14768;SDS011;7476;49.404;11.152;2022-08-19T06:04:10;23.10;;;20.80;;
14768;SDS011;7476;49.404;11.152;2022-08-19T06:06:38;23.63;;;21.20;;
14768;SDS011;7476;49.404;11.152;2022-08-19T06:09:06;22.93;;;20.67;;
14768;SDS011;7476;49.404;11.152;2022-08-19T06:11:36;22.73;;;20.43;;
14768;SDS011;7476;49.404;11.152;2022-08-19T06:14:06;22.03;;;19.83;;
14768;SDS011;7476;49.404;11.152;2022-08-19T06:16:36;22.17;;;19.93;;
14768;SDS011;7476;49.404;11.152;2022-08-19T06:19:04;22.53;;;20.33;;
14768;SDS011;7476;49.404;11.152;2022-08-19T06:21:33;22.10;;;19.30;;
14768;SDS011;7476;49.404;11.152;2022-08-19T06:24:03;22.47;;;20.27;;
14768;SDS011;7476;49.404;11.152;2022-08-19T06:26:30;22.43;;;20.10;;
14768;SDS011;7476;49.404;11.152;2022-08-19T06:28:58;21.20;;;19.03;;
14768;SDS011;7476;49.404;11.152;2022-08-19T06:31:25;21.87;;;19.63;;
14768;SDS011;7476;49.404;11.152;2022-08-19T06:33:53;21.10;;;19.03;;
14768;SDS011;7476;49.404;11.152;2022-08-19T06:36:21;20.93;;;18.83;;
14768;SDS011;7476;49.404;11.152;2022-08-19T06:38:52;21.67;;;19.47;;
14768;SDS011;7476;49.404;11.152;2022-08-19T06:41:19;23.13;;;20.83;;
14768;SDS011;7476;49.404;11.152;2022-08-19T06:43:46;21.40;;;19.40;;
14768;SDS011;7476;49.404;11.152;2022-08-19T06:46:15;20.53;;;18.60;;
14768;SDS011;7476;49.404;11.152;2022-08-19T06:48:43;21.73;;;19.73;;
14768;SDS011;7476;49.404;11.152;2022-08-19T06:51:10;21.50;;;19.30;;
14768;SDS011;7476;49.404;11.152;2022-08-19T06:53:40;20.60;;;18.60;;
14768;SDS011;7476;49.404;11.152;2022-08-19T06:56:12;20.47;;;18.47;;
14768;SDS011;7476;49.404;11.152;2022-08-19T06:58:39;21.30;;;19.17;;
14768;SDS011;7476;49.404;11.152;2022-08-19T07:01:06;20.90;;;18.80;;
14768;SDS011;7476;49.404;11.152;2022-08-19T07:03:36;19.17;;;17.27;;
14768;SDS011;7476;49.404;11.152;2022-08-19T07:06:04;18.83;;;17.10;;
14768;SDS011;7476;49.404;11.152;2022-08-19T07:08:34;21.17;;;19.07;;
14768;SDS011;7476;49.404;11.152;2022-08-19T07:11:01;20.40;;;18.40;;
14768;SDS011;7476;49.404;11.152;2022-08-19T07:13:28;20.10;;;18.13;;
14768;SDS011;7476;49.404;11.152;2022-08-19T07:16:02;20.10;;;18.27;;
14768;SDS011;7476;49.404;11.152;2022-08-19T07:18:29;20.30;;;18.40;;
14768;SDS011;7476;49.404;11.152;2022-08-19T07:21:03;20.87;;;18.87;;
14768;SDS011;7476;49.404;11.152;2022-08-19T07:23:30;20.43;;;18.33;;
14768;SDS011;7476;49.404;11.152;2022-08-19T07:25:57;20.07;;;18.13;;
14768;SDS011;7476;49.404;11.152;2022-08-19T07:28:23;20.37;;;18.37;;
14768;SDS011;7476;49.404;11.152;2022-08-19T07:30:50;21.20;;;18.77;;
14768;SDS011;7476;49.404;11.152;2022-08-19T07:33:17;20.43;;;18.33;;
14768;SDS011;7476;49.404;11.152;2022-08-19T07:35:44;17.83;;;16.03;;
14768;SDS011;7476;49.404;11.152;2022-08-19T07:38:12;19.73;;;17.73;;
14768;SDS011;7476;49.404;11.152;2022-08-19T07:40:39;18.90;;;17.10;;
14768;SDS011;7476;49.404;11.152;2022-08-19T07:43:08;20.10;;;18.03;;
14768;SDS011;7476;49.404;11.152;2022-08-19T07:45:35;20.27;;;18.27;;
14768;SDS011;7476;49.404;11.152;2022-08-19T07:48:02;19.73;;;17.80;;
14768;SDS011;7476;49.404;11.152;2022-08-19T07:50:29;18.80;;;16.80;;
14768;SDS011;7476;49.404;11.152;2022-08-19T07:52:56;17.43;;;15.63;;
14768;SDS011;7476;49.404;11.152;2022-08-19T07:55:25;17.00;;;15.50;;
14768;SDS011;7476;49.404;11.152;2022-08-19T07:57:52;16.43;;;14.90;;
14768;SDS011;7476;49.404;11.152;2022-08-19T08:00:19;16.57;;;15.07;;
14768;SDS011;7476;49.404;11.152;2022-08-19T08:02:46;17.33;;;15.53;;
14768;SDS011;7476;49.404;11.152;2022-08-19T08:05:12;16.10;;;14.60;;
14768;SDS011;7476;49.404;11.152;2022-08-19T08:07:57;15.73;;;14.33;;
14768;SDS011;7476;49.404;11.152;2022-08-19T08:10:42;17.23;;;14.60;;
14768;SDS011;7476;49.404;11.152;2022-08-19T08:13:09;14.83;;;13.43;;
14768;SDS011;7476;49.404;11.152;2022-08-19T08:15:36;15.23;;;13.83;;
14768;SDS011;7476;49.404;11.152;2022-08-19T08:18:04;15.07;;;13.67;;
14768;SDS011;7476;49.404;11.152;2022-08-19T08:20:30;14.20;;;12.80;;
14768;SDS011;7476;49.404;11.152;2022-08-19T08:22:57;14.90;;;13.50;;
14768;SDS011;7476;49.404;11.152;2022-08-19T08:25:43;15.17;;;13.67;;
14768;SDS011;7476;49.404;11.152;2022-08-19T08:28:10;16.00;;;14.47;;
14768;SDS011;7476;49.404;11.152;2022-08-19T08:30:36;15.30;;;13.90;;
14768;SDS011;7476;49.404;11.152;2022-08-19T08:33:06;15.30;;;13.87;;
14768;SDS011;7476;49.404;11.152;2022-08-19T08:35:33;15.07;;;13.57;;
14768;SDS011;7476;49.404;11.152;2022-08-19T08:38:00;16.13;;;14.57;;
14768;SDS011;7476;49.404;11.152;2022-08-19T08:40:29;16.67;;;15.00;;
14768;SDS011;7476;49.404;11.152;2022-08-19T08:43:03;16.60;;;14.90;;
14768;SDS011;7476;49.404;11.152;2022-08-19T08:45:33;16.90;;;15.10;;
14768;SDS011;7476;49.404;11.152;2022-08-19T08:48:02;16.40;;;14.80;;
14768;SDS011;7476;49.404;11.152;2022-08-19T08:50:39;15.87;;;14.33;;
14768;SDS011;7476;49.404;11.152;2022-08-19T08:53:10;16.47;;;14.83;;
14768;SDS011;7476;49.404;11.152;2022-08-19T08:55:40;15.27;;;13.77;;
14768;SDS011;7476;49.404;11.152;2022-08-19T08:58:09;15.00;;;13.50;;
14768;SDS011;7476;49.404;11.152;2022-08-19T09:00:43;14.53;;;13.23;;
14768;SDS011;7476;49.404;11.152;2022-08-19T09:03:15;14.90;;;13.40;;
14768;SDS011;7476;49.404;11.152;2022-08-19T09:05:45;16.47;;;13.97;;
14768;SDS011;7476;49.404;11.152;2022-08-19T09:08:18;14.63;;;13.13;;
14768;SDS011;7476;49.404;11.152;2022-08-19T09:10:55;15.50;;;13.03;;
14768;SDS011;7476;49.404;11.152;2022-08-19T09:13:25;13.50;;;12.20;;
14768;SDS011;7476;49.404;11.152;2022-08-19T09:15:58;13.50;;;12.30;;
14768;SDS011;7476;49.404;11.152;2022-08-19T09:18:38;14.00;;;12.57;;
14768;SDS011;7476;49.404;11.152;2022-08-19T09:21:06;13.73;;;12.43;;
14768;SDS011;7476;49.404;11.152;2022-08-19T09:23:33;14.17;;;12.70;;
14768;SDS011;7476;49.404;11.152;2022-08-19T09:26:00;13.70;;;11.77;;
14768;SDS011;7476;49.404;11.152;2022-08-19T09:28:28;13.70;;;12.40;;
14768;SDS011;7476;49.404;11.152;2022-08-19T09:30:56;13.53;;;12.13;;
14768;SDS011;7476;49.404;11.152;2022-08-19T09:33:23;14.30;;;12.90;;
14768;SDS011;7476;49.404;11.152;2022-08-19T09:35:49;15.00;;;13.50;;
14768;SDS011;7476;49.404;11.152;2022-08-19T09:38:16;15.33;;;13.73;;
14768;SDS011;7476;49.404;11.152;2022-08-19T09:40:43;17.17;;;15.47;;
14768;SDS011;7476;49.404;11.152;2022-08-19T09:43:09;16.97;;;15.27;;
14768;SDS011;7476;49.404;11.152;2022-08-19T09:45:37;21.87;;;19.67;;
14768;SDS011;7476;49.404;11.152;2022-08-19T09:48:04;22.23;;;20.03;;
14768;SDS011;7476;49.404;11.152;2022-08-19T09:50:31;22.60;;;20.20;;
14768;SDS011;7476;49.404;11.152;2022-08-19T09:53:03;22.73;;;20.13;;
14768;SDS011;7476;49.404;11.152;2022-08-19T09:55:31;23.90;;;21.50;;
14768;SDS011;7476;49.404;11.152;2022-08-19T09:57:58;24.53;;;22.03;;
14768;SDS011;7476;49.404;11.152;2022-08-19T10:00:26;24.10;;;21.57;;
14768;SDS011;7476;49.404;11.152;2022-08-19T10:02:54;24.37;;;21.73;;
14768;SDS011;7476;49.404;11.152;2022-08-19T10:05:20;24.30;;;21.33;;
14768;SDS011;7476;49.404;11.152;2022-08-19T10:08:04;24.60;;;21.93;;
14768;SDS011;7476;49.404;11.152;2022-08-19T10:10:34;27.07;;;24.23;;
14768;SDS011;7476;49.404;11.152;2022-08-19T10:13:01;24.47;;;21.60;;
14768;SDS011;7476;49.404;11.152;2022-08-19T10:15:28;24.07;;;21.50;;
14768;SDS011;7476;49.404;11.152;2022-08-19T10:17:56;23.53;;;21.03;;
14768;SDS011;7476;49.404;11.152;2022-08-19T10:20:24;27.17;;;23.57;;
14768;SDS011;7476;49.404;11.152;2022-08-19T10:22:51;24.57;;;20.83;;
14768;SDS011;7476;49.404;11.152;2022-08-19T10:25:18;23.27;;;20.37;;
14768;SDS011;7476;49.404;11.152;2022-08-19T10:27:44;25.20;;;22.50;;
14768;SDS011;7476;49.404;11.152;2022-08-19T10:30:12;24.70;;;21.97;;
14768;SDS011;7476;49.404;11.152;2022-08-19T10:32:39;22.57;;;20.20;;
14768;SDS011;7476;49.404;11.152;2022-08-19T10:35:07;22.93;;;20.13;;
14768;SDS011;7476;49.404;11.152;2022-08-19T10:37:34;22.23;;;19.87;;
14768;SDS011;7476;49.404;11.152;2022-08-19T10:40:03;22.50;;;20.10;;
14768;SDS011;7476;49.404;11.152;2022-08-19T10:42:33;21.40;;;19.20;;
14768;SDS011;7476;49.404;11.152;2022-08-19T10:45:00;22.87;;;20.30;;
14768;SDS011;7476;49.404;11.152;2022-08-19T10:47:27;26.63;;;20.33;;
14768;SDS011;7476;49.404;11.152;2022-08-19T10:49:54;23.03;;;20.47;;
14768;SDS011;7476;49.404;11.152;2022-08-19T10:52:40;22.03;;;19.73;;
14768;SDS011;7476;49.404;11.152;2022-08-19T10:55:08;24.87;;;20.87;;
14768;SDS011;7476;49.404;11.152;2022-08-19T10:57:52;24.00;;;20.83;;
14768;SDS011;7476;49.404;11.152;2022-08-19T11:00:19;24.43;;;21.63;;
14768;SDS011;7476;49.404;11.152;2022-08-19T11:02:47;24.43;;;21.53;;
14768;SDS011;7476;49.404;11.152;2022-08-19T11:05:14;24.53;;;21.30;;
14768;SDS011;7476;49.404;11.152;2022-08-19T11:07:43;25.30;;;22.53;;
14768;SDS011;7476;49.404;11.152;2022-08-19T11:10:11;26.23;;;21.90;;
14768;SDS011;7476;49.404;11.152;2022-08-19T11:12:40;26.47;;;22.83;;
14768;SDS011;7476;49.404;11.152;2022-08-19T11:15:08;27.67;;;22.83;;
14768;SDS011;7476;49.404;11.152;2022-08-19T11:17:36;25.03;;;22.33;;
14768;SDS011;7476;49.404;11.152;2022-08-19T11:20:05;25.83;;;22.93;;
14768;SDS011;7476;49.404;11.152;2022-08-19T11:22:33;26.77;;;23.97;;
14768;SDS011;7476;49.404;11.152;2022-08-19T11:25:01;24.73;;;21.73;;
14768;SDS011;7476;49.404;11.152;2022-08-19T11:27:29;27.03;;;23.20;;
14768;SDS011;7476;49.404;11.152;2022-08-19T11:29:56;28.50;;;22.33;;
14768;SDS011;7476;49.404;11.152;2022-08-19T11:32:22;26.37;;;23.57;;
14768;SDS011;7476;49.404;11.152;2022-08-19T11:34:49;29.00;;;24.73;;
14768;SDS011;7476;49.404;11.152;2022-08-19T11:37:16;25.83;;;22.80;;
14768;SDS011;7476;49.404;11.152;2022-08-19T11:39:42;25.57;;;22.87;;
14768;SDS011;7476;49.404;11.152;2022-08-19T11:42:10;25.27;;;22.57;;
14768;SDS011;7476;49.404;11.152;2022-08-19T11:44:55;27.37;;;24.37;;
14768;SDS011;7476;49.404;11.152;2022-08-19T11:47:22;26.83;;;23.93;;
14768;SDS011;7476;49.404;11.152;2022-08-19T11:49:48;29.37;;;24.67;;
14768;SDS011;7476;49.404;11.152;2022-08-19T11:52:16;31.87;;;26.13;;
14768;SDS011;7476;49.404;11.152;2022-08-19T11:54:42;30.47;;;25.40;;
14768;SDS011;7476;49.404;11.152;2022-08-19T11:57:10;28.73;;;25.00;;
14768;SDS011;7476;49.404;11.152;2022-08-19T11:59:39;32.40;;;26.03;;
14768;SDS011;7476;49.404;11.152;2022-08-19T12:02:06;30.73;;;24.77;;
14768;SDS011;7476;49.404;11.152;2022-08-19T12:04:33;31.00;;;26.27;;
14768;SDS011;7476;49.404;11.152;2022-08-19T12:07:00;29.50;;;24.80;;
14768;SDS011;7476;49.404;11.152;2022-08-19T12:09:27;31.37;;;25.73;;
14768;SDS011;7476;49.404;11.152;2022-08-19T12:11:53;29.43;;;26.27;;
14768;SDS011;7476;49.404;11.152;2022-08-19T12:14:22;30.80;;;27.03;;
14768;SDS011;7476;49.404;11.152;2022-08-19T12:16:49;28.50;;;24.40;;
14768;SDS011;7476;49.404;11.152;2022-08-19T12:19:16;28.97;;;25.80;;
14768;SDS011;7476;49.404;11.152;2022-08-19T12:21:42;28.77;;;25.67;;
14768;SDS011;7476;49.404;11.152;2022-08-19T12:24:09;28.03;;;25.03;;
14768;SDS011;7476;49.404;11.152;2022-08-19T12:26:36;27.50;;;24.30;;
14768;SDS011;7476;49.404;11.152;2022-08-19T12:29:03;28.43;;;25.47;;
14768;SDS011;7476;49.404;11.152;2022-08-19T12:31:31;29.83;;;26.23;;
14768;SDS011;7476;49.404;11.152;2022-08-19T12:33:57;29.30;;;26.10;;
14768;SDS011;7476;49.404;11.152;2022-08-19T12:36:25;29.00;;;25.93;;
14768;SDS011;7476;49.404;11.152;2022-08-19T12:38:52;30.53;;;27.20;;
14768;SDS011;7476;49.404;11.152;2022-08-19T12:41:19;28.67;;;25.17;;
14768;SDS011;7476;49.404;11.152;2022-08-19T12:43:47;27.77;;;24.37;;
14768;SDS011;7476;49.404;11.152;2022-08-19T12:46:15;28.57;;;25.57;;
14768;SDS011;7476;49.404;11.152;2022-08-19T12:48:43;28.57;;;25.13;;
14768;SDS011;7476;49.404;11.152;2022-08-19T12:51:12;29.23;;;26.20;;
14768;SDS011;7476;49.404;11.152;2022-08-19T12:53:40;28.50;;;25.50;;
14768;SDS011;7476;49.404;11.152;2022-08-19T12:56:07;28.77;;;25.67;;
14768;SDS011;7476;49.404;11.152;2022-08-19T12:58:34;28.23;;;25.13;;
14768;SDS011;7476;49.404;11.152;2022-08-19T13:01:05;28.20;;;24.90;;
14768;SDS011;7476;49.404;11.152;2022-08-19T13:03:33;27.67;;;24.60;;
14768;SDS011;7476;49.404;11.152;2022-08-19T13:06:01;26.23;;;23.63;;
14768;SDS011;7476;49.404;11.152;2022-08-19T13:08:28;26.37;;;23.67;;
14768;SDS011;7476;49.404;11.152;2022-08-19T13:10:55;29.10;;;25.77;;
14768;SDS011;7476;49.404;11.152;2022-08-19T13:13:23;27.23;;;24.30;;
14768;SDS011;7476;49.404;11.152;2022-08-19T13:15:51;27.90;;;24.90;;
14768;SDS011;7476;49.404;11.152;2022-08-19T13:18:18;29.70;;;25.20;;
14768;SDS011;7476;49.404;11.152;2022-08-19T13:20:44;28.37;;;25.30;;
14768;SDS011;7476;49.404;11.152;2022-08-19T13:23:12;26.80;;;24.10;;
14768;SDS011;7476;49.404;11.152;2022-08-19T13:25:39;26.73;;;23.93;;
14768;SDS011;7476;49.404;11.152;2022-08-19T13:28:06;27.23;;;24.33;;
14768;SDS011;7476;49.404;11.152;2022-08-19T13:30:33;27.30;;;24.47;;
14768;SDS011;7476;49.404;11.152;2022-08-19T13:33:17;28.10;;;25.23;;
14768;SDS011;7476;49.404;11.152;2022-08-19T13:35:45;27.00;;;24.20;;
14768;SDS011;7476;49.404;11.152;2022-08-19T13:38:16;28.90;;;25.80;;
14768;SDS011;7476;49.404;11.152;2022-08-19T13:40:45;27.53;;;24.50;;
14768;SDS011;7476;49.404;11.152;2022-08-19T13:43:14;30.17;;;27.07;;
14768;SDS011;7476;49.404;11.152;2022-08-19T13:45:42;30.00;;;26.80;;
14768;SDS011;7476;49.404;11.152;2022-08-19T13:48:09;29.93;;;26.60;;
14768;SDS011;7476;49.404;11.152;2022-08-19T13:50:38;32.53;;;28.30;;
14768;SDS011;7476;49.404;11.152;2022-08-19T13:53:06;30.67;;;27.37;;
14768;SDS011;7476;49.404;11.152;2022-08-19T13:55:35;32.60;;;29.10;;
14768;SDS011;7476;49.404;11.152;2022-08-19T13:58:06;33.50;;;29.07;;
14768;SDS011;7476;49.404;11.152;2022-08-19T14:00:33;32.40;;;28.90;;
14768;SDS011;7476;49.404;11.152;2022-08-19T14:03:02;31.30;;;27.77;;
14768;SDS011;7476;49.404;11.152;2022-08-19T14:05:29;31.90;;;28.50;;
14768;SDS011;7476;49.404;11.152;2022-08-19T14:07:57;30.23;;;26.70;;
14768;SDS011;7476;49.404;11.152;2022-08-19T14:10:25;31.87;;;28.37;;
14768;SDS011;7476;49.404;11.152;2022-08-19T14:12:54;29.03;;;25.87;;
14768;SDS011;7476;49.404;11.152;2022-08-19T14:15:23;28.37;;;25.30;;
14768;SDS011;7476;49.404;11.152;2022-08-19T14:17:50;28.13;;;25.23;;
14768;SDS011;7476;49.404;11.152;2022-08-19T14:20:17;28.67;;;25.53;;
14768;SDS011;7476;49.404;11.152;2022-08-19T14:22:45;26.53;;;23.73;;
14768;SDS011;7476;49.404;11.152;2022-08-19T14:25:13;24.97;;;22.40;;
14768;SDS011;7476;49.404;11.152;2022-08-19T14:27:42;24.53;;;21.83;;
14768;SDS011;7476;49.404;11.152;2022-08-19T14:30:12;24.40;;;21.87;;